Time;durP1;ratioP1;P1;durP2;ratioP2;P2;SDS_P1;SDS_P2;PMS_P1;PMS_P2;Temp;Humidity;BMP_temperature;BMP_pressure;BME280_temperature;BME280_humidity;BME280_pressure;Samples;Min_cycle;Max_cycle;Signal;HPM_P1;HPM_P2
2021/04/08 00:00:40;;;;;;;13.43;2.72;;;5.30;88.70;1.50;102122.00;;;;4990601;28;20089;-72
2021/04/08 00:03:06;;;;;;;7.07;2.22;;;2.90;87.60;1.50;102133.00;;;;5005142;28;20611;-72
2021/04/08 00:05:32;;;;;;;11.07;2.70;;;2.90;87.40;1.50;102120.00;;;;4991915;28;20476;-71
2021/04/08 00:07:57;;;;;;;13.23;2.72;;;2.90;87.70;1.50;102119.00;;;;4990650;28;20041;-72
2021/04/08 00:10:23;;;;;;;8.07;2.83;;;2.90;87.50;1.50;102116.00;;;;4981350;28;20048;-72
2021/04/08 00:12:49;;;;;;;12.95;3.70;;;2.90;87.40;1.50;102128.00;;;;4989971;28;20545;-72
2021/04/08 00:15:16;;;;;;;9.82;3.50;;;2.90;87.30;1.40;102119.00;;;;4990540;28;20463;-72
2021/04/08 00:17:43;;;;;;;10.43;3.67;;;2.80;86.70;1.40;102125.00;;;;4999144;28;20657;-72
2021/04/08 00:20:16;;;;;;;12.43;4.20;;;2.80;87.60;1.40;102131.00;;;;4991919;28;20627;-71
2021/04/08 00:22:42;;;;;;;14.48;3.88;;;2.80;87.70;1.40;102125.00;;;;4985704;28;20050;-72
2021/04/08 00:25:09;;;;;;;14.82;4.32;;;2.80;86.90;1.40;102138.00;;;;4971703;28;20041;-72
2021/04/08 00:27:35;;;;;;;16.98;4.35;;;2.80;87.70;1.40;102131.00;;;;4990842;28;20480;-72
2021/04/08 00:30:01;;;;;;;16.73;4.75;;;2.80;87.70;1.40;102127.00;;;;4989948;28;20034;-72
2021/04/08 00:32:27;;;;;;;13.95;4.93;;;2.80;87.80;1.40;102145.00;;;;4989354;28;20488;-72
2021/04/08 00:34:53;;;;;;;16.40;5.15;;;2.80;88.00;1.40;102129.00;;;;4994720;28;20049;-72
2021/04/08 00:37:19;;;;;;;15.90;5.18;;;2.80;88.10;1.40;102132.00;;;;4992911;28;20563;-71
2021/04/08 00:39:44;;;;;;;10.98;4.40;;;2.80;88.20;1.40;102134.00;;;;4993509;28;20053;-71
2021/04/08 00:42:11;;;;;;;13.23;4.80;;;2.80;88.30;1.40;102143.00;;;;4988770;28;20041;-71
2021/04/08 00:44:37;;;;;;;16.98;5.10;;;2.80;88.30;1.40;102148.00;;;;4994443;28;20041;-71
2021/04/08 00:47:03;;;;;;;12.65;5.07;;;2.80;88.40;1.40;102145.00;;;;4993399;28;20053;-72
2021/04/08 00:49:29;;;;;;;13.10;6.07;;;2.80;88.40;1.40;102156.00;;;;4991050;28;20641;-72
2021/04/08 00:51:54;;;;;;;17.90;6.20;;;2.80;88.40;1.40;102150.00;;;;4967883;28;20065;-73
2021/04/08 00:54:21;;;;;;;16.50;6.22;;;2.80;88.40;1.40;102155.00;;;;4973966;28;20057;-72
2021/04/08 00:56:47;;;;;;;13.68;6.03;;;2.80;88.50;1.40;102166.00;;;;4989202;28;20034;-72
2021/04/08 00:59:14;;;;;;;17.75;5.78;;;2.80;88.50;1.40;102159.00;;;;4995409;28;20050;-72
2021/04/08 01:01:40;;;;;;;13.68;5.35;;;2.80;88.70;1.40;102165.00;;;;4972077;28;22171;-72
2021/04/08 01:04:06;;;;;;;13.00;5.35;;;2.80;88.60;1.30;102158.00;;;;4976336;28;20049;-72
2021/04/08 01:06:32;;;;;;;14.60;4.68;;;2.80;88.40;1.40;102156.00;;;;4986450;28;20477;-72
2021/04/08 01:08:58;;;;;;;16.25;5.13;;;2.80;88.40;1.40;102162.00;;;;4991187;28;20599;-72
2021/04/08 01:11:24;;;;;;;16.70;4.93;;;2.70;88.40;1.40;102161.00;;;;4978514;28;20593;-72
2021/04/08 01:13:52;;;;;;;13.30;4.43;;;2.70;87.50;1.40;102160.00;;;;4995409;28;20592;-73
2021/04/08 01:16:49;;;;;;;;;;;2.80;88.50;1.30;102166.00;;;;4976653;28;20034;-72
2021/04/08 01:20:02;;;;;;;13.80;4.20;;;2.80;89.40;1.40;102148.00;;;;4974243;28;19925;-71
2021/04/08 01:22:37;;;;;;;14.40;3.92;;;2.80;88.70;1.40;102155.00;;;;4992671;28;20124;-72
2021/04/08 01:25:42;;;;;;;13.85;3.78;;;2.80;88.70;1.40;102156.00;;;;4989455;28;20548;-72
2021/04/08 01:28:31;;;;;;;13.93;3.67;;;2.80;88.70;1.40;102154.00;;;;4968392;28;20057;-72
2021/04/08 01:31:00;;;;;;;11.55;3.40;;;2.80;88.70;1.40;102148.00;;;;4997676;28;20058;-72
2021/04/08 01:33:35;;;;;;;10.27;3.33;;;2.80;88.60;1.50;102156.00;;;;4991607;28;20506;-72
2021/04/08 01:36:13;;;;;;;10.07;3.65;;;2.90;88.60;1.50;102162.00;;;;4991390;28;20042;-72
2021/04/08 01:38:49;;;;;;;8.38;2.72;;;2.90;88.50;1.50;102163.00;;;;4991900;28;20045;-71
2021/04/08 01:41:22;;;;;;;9.43;2.88;;;2.90;88.60;1.50;102160.00;;;;4992822;28;20556;-71
2021/04/08 01:43:53;;;;;;;12.75;3.08;;;2.90;88.50;1.60;102168.00;;;;4974153;28;20054;-71
2021/04/08 01:46:23;;;;;;;6.03;2.83;;;3.00;88.40;1.60;102162.00;;;;4993148;28;20868;-71
2021/04/08 01:48:52;;;;;;;16.85;3.00;;;3.00;88.80;1.60;102175.00;;;;4996814;28;20513;-71
2021/04/08 01:51:18;;;;;;;8.63;2.53;;;3.00;88.60;1.60;102176.00;;;;4991500;28;20052;-72
2021/04/08 01:53:51;;;;;;;8.80;2.45;;;3.00;88.60;1.60;102172.00;;;;4992643;28;20054;-72
2021/04/08 01:56:20;;;;;;;10.35;2.90;;;3.00;88.60;1.60;102171.00;;;;4986050;28;20041;-72
2021/04/08 01:58:48;;;;;;;10.85;2.85;;;3.00;88.60;1.60;102156.00;;;;4990495;28;20058;-72
2021/04/08 02:01:19;;;;;;;11.77;2.75;;;3.00;88.50;1.70;102162.00;;;;4972009;28;20124;-72
2021/04/08 02:03:47;;;;;;;10.50;3.00;;;3.10;88.40;1.70;102164.00;;;;4990075;28;20046;-72
2021/04/08 02:06:13;;;;;;;10.65;2.78;;;3.10;88.50;1.70;102164.00;;;;4988032;28;20417;-72
2021/04/08 02:08:45;;;;;;;12.48;2.95;;;3.10;88.50;1.80;102161.00;;;;4990079;28;20038;-72
2021/04/08 02:11:12;;;;;;;12.70;3.28;;;3.10;88.40;1.80;102165.00;;;;4985340;28;20097;-71
2021/04/08 02:13:41;;;;;;;15.00;3.88;;;3.10;87.40;1.80;102167.00;;;;4983574;28;20065;-72
2021/04/08 02:16:10;;;;;;;8.18;2.67;;;3.10;88.20;1.80;102172.00;;;;4987311;28;20045;-72
2021/04/08 02:18:37;;;;;;;10.35;2.55;;;3.20;88.50;1.80;102176.00;;;;4984187;28;20608;-71
2021/04/08 02:21:04;;;;;;;8.23;2.17;;;3.20;88.20;1.80;102174.00;;;;4991125;28;20050;-72
2021/04/08 02:23:33;;;;;;;7.65;2.22;;;3.20;88.20;1.80;102183.00;;;;4986077;28;20111;-71
2021/04/08 02:26:01;;;;;;;10.60;2.00;;;3.20;88.20;1.80;102183.00;;;;4980290;28;20045;-71
2021/04/08 02:28:28;;;;;;;6.55;2.15;;;3.20;88.10;1.80;102184.00;;;;4974760;28;20938;-71
2021/04/08 02:30:56;;;;;;;5.43;1.92;;;3.10;88.10;1.80;102182.00;;;;4983948;28;20046;-73
2021/04/08 02:33:30;;;;;;;12.73;2.10;;;3.20;88.30;1.80;102175.00;;;;4979901;28;20054;-71
2021/04/08 02:35:58;;;;;;;13.88;2.30;;;3.20;88.00;1.80;102178.00;;;;4982996;28;20073;-72
2021/04/08 02:38:27;;;;;;;9.95;2.47;;;3.20;87.90;1.80;102175.00;;;;4984664;28;20894;-72
2021/04/08 02:40:55;;;;;;;12.40;2.30;;;3.20;88.10;1.80;102171.00;;;;4996093;28;20070;-72
2021/04/08 02:43:21;;;;;;;;;;;3.20;88.20;1.80;102174.00;;;;4983233;28;20080;-71
2021/04/08 02:45:47;;;;;;;8.10;1.90;;;3.20;88.60;1.80;102166.00;;;;4980038;28;19914;-72
2021/04/08 02:48:18;;;;;;;13.68;2.50;;;3.20;88.40;1.80;102177.00;;;;4979400;28;20049;-72
2021/04/08 02:50:50;;;;;;;4.93;2.03;;;3.20;88.20;1.90;102170.00;;;;5005615;28;20108;-72
2021/04/08 02:53:25;;;;;;;8.52;2.20;;;3.20;88.20;1.90;102181.00;;;;4990884;28;20050;-72
2021/04/08 02:56:15;;;;;;;8.35;2.40;;;3.20;88.20;1.90;102186.00;;;;4990079;28;20413;-72
2021/04/08 02:58:45;;;;;;;7.57;2.25;;;3.30;88.20;1.90;102179.00;;;;4988684;28;20569;-71
2021/04/08 03:01:13;;;;;;;7.15;2.03;;;3.30;88.20;1.90;102182.00;;;;4977288;28;20096;-71
2021/04/08 03:03:51;;;;;;;10.60;2.22;;;3.30;88.20;1.90;102183.00;;;;4997670;28;24826;-71
2021/04/08 03:06:18;;;;;;;7.22;2.10;;;3.30;88.20;1.90;102185.00;;;;4986068;28;20595;-71
2021/04/08 03:08:48;;;;;;;10.77;2.03;;;3.30;88.40;1.90;102178.00;;;;4986619;28;20041;-71
2021/04/08 03:11:19;;;;;;;10.60;2.35;;;3.30;88.50;2.00;102175.00;;;;4985092;28;20041;-70
2021/04/08 03:13:47;;;;;;;7.80;1.73;;;3.30;88.30;1.90;102179.00;;;;4988918;28;20432;-71
2021/04/08 03:16:21;;;;;;;13.27;2.35;;;3.30;88.20;1.90;102184.00;;;;4993379;28;20045;-71
2021/04/08 03:18:51;;;;;;;6.70;1.77;;;3.30;88.30;1.90;102183.00;;;;4986191;28;20034;-70
2021/04/08 03:21:18;;;;;;;12.07;1.88;;;3.30;88.30;1.90;102171.00;;;;4988240;28;20041;-71
2021/04/08 03:23:45;;;;;;;8.87;2.53;;;3.30;88.20;2.00;102181.00;;;;4989660;28;20039;-71
2021/04/08 03:26:12;;;;;;;7.70;2.47;;;3.30;88.20;2.00;102178.00;;;;4989421;28;20301;-71
2021/04/08 03:28:39;;;;;;;14.02;2.20;;;3.30;88.40;2.00;102165.00;;;;4972109;28;20050;-71
2021/04/08 03:31:06;;;;;;;6.90;1.85;;;3.30;88.20;2.00;102174.00;;;;4992000;28;21254;-71
2021/04/08 03:33:36;;;;;;;8.90;1.90;;;3.40;88.30;2.00;102175.00;;;;4984185;28;20045;-72
2021/04/08 03:36:03;;;;;;;9.95;1.70;;;3.40;88.30;2.00;102166.00;;;;4990015;28;20088;-70
2021/04/08 03:38:30;;;;;;;7.00;1.70;;;3.40;87.90;2.10;102163.00;;;;5008325;28;20140;-71
2021/04/08 03:41:00;;;;;;;7.80;1.52;;;3.30;87.80;2.00;102170.00;;;;4989086;28;20074;-71
2021/04/08 03:43:27;;;;;;;7.30;1.52;;;3.40;87.80;2.10;102165.00;;;;4985303;28;20049;-70
2021/04/08 03:45:59;;;;;;;6.78;1.60;;;3.40;87.60;2.10;102175.00;;;;4984644;28;20037;-70
2021/04/08 03:48:27;;;;;;;9.75;1.60;;;3.40;87.60;2.10;102173.00;;;;5002340;28;20045;-70
2021/04/08 03:50:54;;;;;;;6.88;2.30;;;3.40;87.60;2.10;102176.00;;;;4988831;28;20547;-72
2021/04/08 03:53:20;;;;;;;6.53;2.10;;;3.40;87.70;2.10;102179.00;;;;4988761;28;20054;-71
2021/04/08 03:55:47;;;;;;;6.47;1.70;;;3.50;87.60;2.10;102190.00;;;;4990605;28;20069;-72
2021/04/08 03:58:16;;;;;;;6.40;1.73;;;3.40;87.50;2.10;102169.00;;;;4982808;28;20034;-71
2021/04/08 04:00:42;;;;;;;9.23;2.10;;;3.40;87.60;2.10;102181.00;;;;4983303;28;20038;-71
2021/04/08 04:03:10;;;;;;;8.50;2.00;;;3.40;87.50;2.10;102184.00;;;;4990007;28;20042;-71
2021/04/08 04:05:38;;;;;;;8.88;2.25;;;3.40;87.50;2.10;102181.00;;;;5002153;28;20058;-71
2021/04/08 04:08:05;;;;;;;11.35;2.50;;;3.40;87.50;2.10;102180.00;;;;5002721;28;20132;-71
2021/04/08 04:10:39;;;;;;;8.30;2.17;;;3.50;87.60;2.10;102185.00;;;;4992419;28;20050;-71
2021/04/08 04:13:06;;;;;;;7.45;2.05;;;3.60;87.50;2.10;102182.00;;;;4974650;28;20073;-71
2021/04/08 04:15:35;;;;;;;6.35;2.30;;;3.50;87.50;2.20;102189.00;;;;4986164;28;20049;-71
2021/04/08 04:18:06;;;;;;;11.77;2.60;;;3.50;87.50;2.10;102181.00;;;;4986707;28;20042;-71
2021/04/08 04:20:34;;;;;;;11.93;2.13;;;3.50;87.60;2.20;102177.00;;;;4990911;28;20046;-72
2021/04/08 04:23:02;;;;;;;8.10;2.35;;;3.50;87.60;2.20;102172.00;;;;4987544;28;20030;-71
2021/04/08 04:25:28;;;;;;;12.38;2.50;;;3.50;87.50;2.20;102176.00;;;;4982411;28;20057;-71
2021/04/08 04:27:54;;;;;;;9.02;2.80;;;3.50;87.50;2.20;102178.00;;;;4997342;28;20050;-71
2021/04/08 04:30:21;;;;;;;9.45;2.95;;;3.50;87.60;2.20;102182.00;;;;4993624;28;20621;-71
2021/04/08 04:32:47;;;;;;;8.63;2.88;;;3.50;87.50;2.20;102174.00;;;;4995939;28;20041;-71
2021/04/08 04:35:16;;;;;;;9.93;3.28;;;3.50;87.50;2.20;102176.00;;;;4996949;28;20483;-71
2021/04/08 04:37:42;;;;;;;8.05;2.85;;;3.60;87.60;2.20;102180.00;;;;4984570;28;20046;-71
2021/04/08 04:40:09;;;;;;;11.75;3.10;;;3.50;88.60;2.20;102183.00;;;;4989775;28;20046;-71
2021/04/08 04:42:35;;;;;;;9.00;3.45;;;3.60;87.50;2.20;102195.00;;;;4980453;28;20587;-71
2021/04/08 04:45:03;;;;;;;12.55;3.65;;;3.50;87.40;2.20;102183.00;;;;4993006;28;20045;-71
2021/04/08 04:47:29;;;;;;;14.40;3.30;;;3.50;87.40;2.20;102191.00;;;;4999433;28;20069;-71
2021/04/08 04:49:55;;;;;;;15.73;3.78;;;3.50;87.40;2.20;102188.00;;;;4994801;28;20177;-71
2021/04/08 04:52:21;;;;;;;13.05;3.90;;;3.60;88.60;2.20;102200.00;;;;4986613;28;20069;-70
2021/04/08 04:54:47;;;;;;;13.18;4.50;;;3.50;87.40;2.20;102195.00;;;;4984879;28;20495;-71
2021/04/08 04:57:13;;;;;;;10.63;4.45;;;3.50;87.40;2.20;102183.00;;;;4989185;28;20046;-71
2021/04/08 04:59:39;;;;;;;11.25;4.00;;;3.50;87.50;2.20;102190.00;;;;4991981;28;20185;-71
2021/04/08 05:02:05;;;;;;;10.57;3.85;;;3.60;86.50;2.20;102187.00;;;;4986931;28;20103;-71
2021/04/08 05:04:30;;;;;;;9.20;3.75;;;3.50;87.40;2.20;102199.00;;;;4989821;28;20037;-71
2021/04/08 05:06:56;;;;;;;11.70;3.97;;;3.50;87.40;2.20;102199.00;;;;4982990;28;20143;-72
2021/04/08 05:09:22;;;;;;;11.40;4.35;;;3.50;87.40;2.20;102193.00;;;;5001743;28;20057;-71
2021/04/08 05:11:48;;;;;;;13.23;4.63;;;3.50;87.50;2.30;102199.00;;;;4988814;28;20053;-71
2021/04/08 05:14:14;;;;;;;10.55;3.90;;;3.60;87.50;2.30;102197.00;;;;4987861;28;20485;-72
2021/04/08 05:16:40;;;;;;;16.50;4.78;;;3.60;87.50;2.30;102198.00;;;;4995931;28;20575;-71
2021/04/08 05:19:06;;;;;;;11.30;3.97;;;3.60;86.50;2.30;102202.00;;;;4985051;28;20065;-71
2021/04/08 05:21:32;;;;;;;9.13;3.75;;;3.60;86.40;2.30;102202.00;;;;4987533;28;20141;-70
2021/04/08 05:23:58;;;;;;;10.93;4.07;;;3.60;87.40;2.30;102199.00;;;;4991422;28;20129;-71
2021/04/08 05:26:24;;;;;;;14.35;4.80;;;3.60;87.30;2.30;102197.00;;;;4999314;28;20050;-71
2021/04/08 05:28:50;;;;;;;13.55;5.22;;;3.60;87.20;2.30;102193.00;;;;4988122;28;20038;-70
2021/04/08 05:31:15;;;;;;;17.27;4.82;;;3.60;87.20;2.40;102201.00;;;;4992696;28;20265;-69
2021/04/08 05:33:41;;;;;;;10.73;4.68;;;3.70;87.20;2.40;102201.00;;;;4987296;28;20045;-70
2021/04/08 05:36:08;;;;;;;11.43;3.72;;;3.70;87.10;2.40;102207.00;;;;4986719;28;20057;-70
2021/04/08 05:38:33;;;;;;;11.95;4.65;;;3.70;87.00;2.40;102200.00;;;;4995184;28;20041;-69
2021/04/08 05:40:59;;;;;;;23.58;9.25;;;3.70;86.90;2.40;102207.00;;;;4990406;28;20447;-69
2021/04/08 05:43:25;;;;;;;14.15;6.43;;;3.70;87.00;2.40;102205.00;;;;4995793;28;20423;-69
2021/04/08 05:45:51;;;;;;;12.68;4.65;;;3.70;86.80;2.40;102197.00;;;;4995072;28;20628;-69
2021/04/08 05:48:17;;;;;;;15.57;4.70;;;3.70;86.70;2.40;102203.00;;;;4986043;28;20042;-69
2021/04/08 05:50:43;;;;;;;11.15;4.30;;;3.70;86.60;2.40;102206.00;;;;4977749;28;20513;-69
2021/04/08 05:53:11;;;;;;;11.07;4.05;;;3.70;86.30;2.40;102208.00;;;;4993005;28;20068;-69
2021/04/08 05:55:37;;;;;;;18.48;5.95;;;3.70;86.20;2.40;102210.00;;;;4993340;28;20050;-70
2021/04/08 05:58:03;;;;;;;9.98;4.80;;;3.70;86.20;2.40;102206.00;;;;4989674;28;20096;-70
2021/04/08 06:00:29;;;;;;;13.45;4.60;;;3.70;85.80;2.40;102218.00;;;;4976492;28;20042;-70
2021/04/08 06:02:56;;;;;;;15.68;4.30;;;3.70;85.70;2.50;102206.00;;;;4985414;28;20438;-70
2021/04/08 06:05:22;;;;;;;12.93;4.70;;;3.70;85.70;2.50;102218.00;;;;4985913;28;21371;-70
2021/04/08 06:07:48;;;;;;;10.00;4.30;;;3.80;85.70;2.60;102211.00;;;;4984392;28;20502;-70
2021/04/08 06:10:14;;;;;;;11.60;4.28;;;3.80;85.30;2.70;102211.00;;;;4987833;28;20049;-70
2021/04/08 06:12:42;;;;;;;14.82;4.97;;;3.90;85.10;2.70;102212.00;;;;4985237;28;20621;-70
2021/04/08 06:15:09;;;;;;;8.65;3.97;;;3.90;85.00;2.80;102222.00;;;;4988750;28;20188;-71
2021/04/08 06:17:35;;;;;;;10.70;3.47;;;4.00;83.30;2.80;102221.00;;;;4990525;28;20037;-69
2021/04/08 06:20:04;;;;;;;8.75;3.50;;;4.00;82.50;2.80;102227.00;;;;4989926;28;20129;-69
2021/04/08 06:22:31;;;;;;;11.40;4.00;;;4.00;83.90;2.80;102231.00;;;;4987458;28;20404;-69
2021/04/08 06:24:57;;;;;;;14.32;4.00;;;4.10;83.70;2.90;102232.00;;;;5001167;28;20046;-70
2021/04/08 06:27:23;;;;;;;11.07;3.50;;;4.10;83.90;2.90;102241.00;;;;4991288;28;20056;-70
2021/04/08 06:29:48;;;;;;;15.30;4.50;;;4.10;83.70;2.90;102239.00;;;;4990214;28;20133;-70
2021/04/08 06:32:14;;;;;;;15.43;4.57;;;4.10;83.70;2.90;102230.00;;;;4955142;28;20092;-69
2021/04/08 06:34:40;;;;;;;9.73;3.65;;;4.20;83.50;2.90;102238.00;;;;4990218;28;20136;-68
2021/04/08 06:37:06;;;;;;;11.40;4.00;;;4.20;83.50;3.00;102239.00;;;;4964653;28;20045;-68
2021/04/08 06:39:35;;;;;;;11.13;3.80;;;4.20;82.80;3.00;102242.00;;;;4984501;28;20092;-68
2021/04/08 06:42:01;;;;;;;8.73;4.00;;;4.20;83.10;3.00;102244.00;;;;4991213;28;20119;-69
2021/04/08 06:44:29;;;;;;;11.73;3.80;;;4.30;83.00;3.00;102245.00;;;;4988388;28;20061;-68
2021/04/08 06:47:00;;;;;;;13.45;3.58;;;4.30;81.80;3.10;102238.00;;;;4991026;28;20042;-68
2021/04/08 06:49:42;;;;;;;11.40;3.40;;;4.30;82.70;3.10;102245.00;;;;4990539;28;20042;-70
2021/04/08 06:52:10;;;;;;;17.85;4.40;;;4.40;82.10;3.20;102246.00;;;;4982925;28;20041;-69
2021/04/08 06:54:38;;;;;;;6.55;3.55;;;4.40;81.90;3.10;102250.00;;;;4993418;28;20073;-70
2021/04/08 06:57:05;;;;;;;12.30;5.97;;;4.40;81.60;3.20;102240.00;;;;4980599;28;20484;-69
2021/04/08 06:59:32;;;;;;;15.52;7.00;;;4.40;81.50;3.30;102249.00;;;;4975333;28;20050;-69
2021/04/08 07:01:59;;;;;;;;;;;4.50;81.60;3.30;102259.00;;;;4987840;28;20614;-70
2021/04/08 07:04:25;;;;;;;10.80;4.30;;;4.50;80.90;3.40;102259.00;;;;4986542;28;20044;-70
2021/04/08 07:06:51;;;;;;;10.30;3.75;;;4.50;81.20;3.40;102265.00;;;;4984925;28;20366;-70
2021/04/08 07:09:18;;;;;;;12.30;4.60;;;4.60;81.20;3.50;102268.00;;;;4980951;28;20041;-68
2021/04/08 07:11:45;;;;;;;10.48;4.38;;;4.90;81.10;3.50;102253.00;;;;4987299;28;20049;-71
2021/04/08 07:14:11;;;;;;;10.45;3.75;;;4.70;80.80;3.60;102256.00;;;;4983647;28;20053;-70
2021/04/08 07:16:38;;;;;;;9.77;3.88;;;4.70;81.00;3.70;102250.00;;;;4984750;28;20033;-69
2021/04/08 07:19:07;;;;;;;9.25;3.63;;;4.80;80.90;3.90;102264.00;;;;4983885;28;20085;-69
2021/04/08 07:21:38;;;;;;;13.80;4.18;;;4.90;80.20;4.20;102266.00;;;;4986242;28;20038;-69
2021/04/08 07:24:12;;;;;;;9.05;3.70;;;5.10;78.90;4.30;102265.00;;;;4991770;28;20116;-69
2021/04/08 07:27:04;;;;;;;10.68;3.90;;;5.30;79.50;4.40;102284.00;;;;4981773;28;20045;-69
2021/04/08 07:29:39;;;;;;;6.30;3.55;;;5.40;79.50;4.50;102280.00;;;;4983523;28;20050;-69
2021/04/08 07:32:09;;;;;;;12.13;4.40;;;5.50;78.90;4.50;102273.00;;;;4985757;28;20050;-69
2021/04/08 07:34:50;;;;;;;9.88;3.70;;;5.60;78.70;4.60;102267.00;;;;4988520;28;20056;-69
2021/04/08 07:37:34;;;;;;;12.50;3.55;;;5.60;78.00;4.60;102266.00;;;;4999068;28;20794;-69
2021/04/08 07:40:15;;;;;;;9.60;3.60;;;5.70;78.10;4.70;102276.00;;;;4990844;28;20070;-69
2021/04/08 07:42:42;;;;;;;9.25;4.05;;;5.70;77.50;4.70;102286.00;;;;5005234;28;20129;-70
2021/04/08 07:45:08;;;;;;;12.48;4.28;;;5.80;78.10;4.70;102270.00;;;;4993336;28;20042;-70
2021/04/08 07:47:37;;;;;;;7.18;3.85;;;5.80;78.00;4.70;102270.00;;;;4986268;28;20409;-70
2021/04/08 07:50:05;;;;;;;7.97;3.72;;;5.80;77.50;4.80;102282.00;;;;4974892;28;20591;-70
2021/04/08 07:52:36;;;;;;;10.05;4.25;;;5.90;77.40;4.80;102275.00;;;;4989341;28;20163;-70
2021/04/08 07:55:21;;;;;;;19.30;5.22;;;5.90;77.50;4.80;102276.00;;;;4986241;28;20108;-70
2021/04/08 07:58:08;;;;;;;11.15;4.13;;;5.80;74.30;4.70;102279.00;;;;4980404;28;20108;-70
2021/04/08 08:00:41;;;;;;;14.05;4.40;;;5.90;76.70;4.80;102281.00;;;;4994629;28;20562;-70
2021/04/08 08:03:33;;;;;;;13.45;4.88;;;5.90;76.80;4.80;102266.00;;;;5002694;28;20057;-69
2021/04/08 08:06:01;;;;;;;32.15;7.40;;;6.00;76.30;4.90;102273.00;;;;4989788;28;20046;-69
2021/04/08 08:08:39;;;;;;;25.73;6.30;;;6.00;76.60;5.10;102273.00;;;;4995407;28;20050;-69
2021/04/08 08:11:09;;;;;;;20.30;5.43;;;6.10;76.70;5.20;102274.00;;;;4995189;28;20042;-70
2021/04/08 08:13:39;;;;;;;12.07;4.78;;;6.20;76.20;5.30;102279.00;;;;4993414;28;20038;-70
2021/04/08 08:16:06;;;;;;;21.40;4.90;;;6.30;76.00;5.50;102279.00;;;;4988617;28;20046;-70
2021/04/08 08:18:40;;;;;;;;;;;6.50;76.30;5.70;102276.00;;;;4979780;28;20056;-70
2021/04/08 08:21:11;;;;;;;11.65;4.70;;;6.60;74.10;5.90;102278.00;;;;4978023;28;20388;-70
2021/04/08 08:23:42;;;;;;;8.50;4.15;;;6.80;75.50;6.00;102279.00;;;;4988104;28;20405;-69
2021/04/08 08:26:41;;;;;;;12.68;4.03;;;6.90;74.30;6.10;102273.00;;;;4991509;28;20049;-69
2021/04/08 08:29:10;;;;;;;7.72;4.38;;;7.00;73.60;6.30;102287.00;;;;4992205;28;20061;-70
2021/04/08 08:32:00;;;;;;;9.52;3.65;;;7.10;73.80;6.40;102277.00;;;;4988404;28;20314;-71
2021/04/08 08:34:33;;;;;;;5.88;3.58;;;7.30;72.80;6.60;102284.00;;;;4974900;28;20219;-70
2021/04/08 08:37:13;;;;;;;6.15;3.40;;;7.40;74.00;6.70;102276.00;;;;4991533;28;20041;-70
2021/04/08 08:39:45;;;;;;;8.80;3.67;;;7.50;71.30;6.80;102281.00;;;;4991638;28;21783;-71
2021/04/08 08:42:18;;;;;;;6.85;3.60;;;7.70;70.70;6.90;102294.00;;;;4994432;28;20398;-71
2021/04/08 08:44:44;;;;;;;7.88;3.55;;;7.80;64.40;7.10;102288.00;;;;4979870;28;20061;-70
2021/04/08 08:47:27;;;;;;;9.18;3.53;;;7.90;69.00;7.20;102289.00;;;;4991183;28;20049;-70
2021/04/08 08:50:04;;;;;;;8.45;3.60;;;8.10;67.70;7.40;102284.00;;;;4992785;28;20088;-70
2021/04/08 08:52:37;;;;;;;6.10;3.35;;;8.20;68.40;7.50;102293.00;;;;4993368;28;21059;-72
2021/04/08 08:55:11;;;;;;;13.70;3.72;;;8.30;67.80;7.50;102276.00;;;;4992788;28;20073;-71
2021/04/08 08:57:39;;;;;;;7.50;3.50;;;8.40;66.40;7.50;102277.00;;;;5005920;28;20045;-71
2021/04/08 09:00:07;;;;;;;8.40;3.75;;;8.40;66.30;7.60;102284.00;;;;4994320;28;20038;-70
2021/04/08 09:02:35;;;;;;;17.98;4.93;;;8.50;67.30;7.50;102293.00;;;;4994233;28;20038;-71
2021/04/08 09:05:03;;;;;;;7.80;3.22;;;8.40;64.30;7.40;102287.00;;;;4996158;28;20133;-71
2021/04/08 09:07:30;;;;;;;6.53;3.10;;;8.40;64.90;7.40;102276.00;;;;4987572;28;20060;-71
2021/04/08 09:10:01;;;;;;;4.65;2.85;;;8.30;64.90;7.30;102278.00;;;;4993540;28;20042;-70
2021/04/08 09:12:27;;;;;;;8.50;3.20;;;8.30;63.50;7.20;102278.00;;;;4996366;28;20042;-71
2021/04/08 09:14:55;;;;;;;7.68;3.13;;;8.20;63.70;7.20;102282.00;;;;4991825;28;20042;-71
2021/04/08 09:17:39;;;;;;;9.18;3.10;;;8.20;62.90;7.30;102283.00;;;;4978095;28;20127;-71
2021/04/08 09:20:08;;;;;;;6.45;3.45;;;8.50;62.90;7.40;102287.00;;;;4986572;28;20152;-71
2021/04/08 09:22:33;;;;;;;6.82;3.58;;;8.30;63.40;7.50;102289.00;;;;4993547;28;20038;-71
2021/04/08 09:25:00;;;;;;;7.55;3.60;;;8.40;63.90;7.50;102286.00;;;;4992872;28;20045;-71
2021/04/08 09:27:26;;;;;;;8.30;3.90;;;8.50;61.00;7.60;102281.00;;;;4993362;28;20046;-71
2021/04/08 09:29:56;;;;;;;5.88;3.72;;;8.50;62.80;7.70;102281.00;;;;4975398;28;20746;-71
2021/04/08 09:32:35;;;;;;;6.18;3.58;;;8.60;62.30;7.70;102281.00;;;;4980267;28;20529;-69
2021/04/08 09:35:06;;;;;;;10.90;4.40;;;8.70;62.40;7.90;102274.00;;;;4989591;28;20165;-71
2021/04/08 09:37:47;;;;;;;8.27;4.38;;;8.80;62.80;8.00;102276.00;;;;4995281;28;20053;-71
2021/04/08 09:40:30;;;;;;;6.75;3.83;;;8.80;58.30;8.00;102281.00;;;;4993556;28;20050;-71
2021/04/08 09:43:01;;;;;;;7.18;4.45;;;8.90;60.50;8.00;102281.00;;;;4993080;28;20164;-71
2021/04/08 09:45:32;;;;;;;7.45;3.97;;;8.90;61.10;8.10;102278.00;;;;4989307;28;20041;-70
2021/04/08 09:48:13;;;;;;;7.40;4.60;;;9.00;59.90;8.20;102279.00;;;;4989810;28;20065;-70
2021/04/08 09:51:01;;;;;;;9.48;4.28;;;9.10;60.60;8.30;102271.00;;;;4990449;28;20053;-71
2021/04/08 09:53:52;;;;;;;7.50;4.50;;;9.20;60.10;8.30;102273.00;;;;4990028;28;20569;-70
2021/04/08 09:56:18;;;;;;;6.47;3.72;;;9.30;60.60;8.40;102288.00;;;;4993233;28;20083;-70
2021/04/08 09:58:56;;;;;;;6.22;4.03;;;9.30;59.30;8.40;102277.00;;;;4992816;28;20042;-71
2021/04/08 10:01:22;;;;;;;6.47;4.00;;;9.30;56.80;8.50;102275.00;;;;4997076;28;20050;-70
2021/04/08 10:03:48;;;;;;;5.60;4.18;;;9.40;60.50;8.60;102267.00;;;;4992172;28;20523;-70
2021/04/08 10:06:17;;;;;;;8.52;5.15;;;9.50;59.00;8.60;102272.00;;;;4989752;28;20073;-71
2021/04/08 10:08:43;;;;;;;7.25;4.85;;;9.50;57.50;8.60;102275.00;;;;4992620;28;20068;-71
2021/04/08 10:11:15;;;;;;;7.28;4.55;;;9.50;58.80;8.60;102273.00;;;;4992029;28;20065;-71
2021/04/08 10:13:41;;;;;;;7.32;4.18;;;9.50;58.50;8.60;102276.00;;;;4988310;28;20077;-71
2021/04/08 10:16:15;;;;;;;10.43;5.23;;;9.50;58.80;8.70;102269.00;;;;4990177;28;20427;-72
2021/04/08 10:18:43;;;;;;;8.55;5.22;;;9.60;58.20;8.70;102265.00;;;;4996667;28;20054;-71
2021/04/08 10:21:16;;;;;;;7.65;4.80;;;9.60;57.00;8.70;102272.00;;;;4993549;28;20038;-71
2021/04/08 10:23:48;;;;;;;11.00;5.43;;;9.60;56.60;8.60;102276.00;;;;4992635;28;20050;-71
2021/04/08 10:26:33;;;;;;;6.22;5.13;;;9.60;57.30;8.60;102264.00;;;;4987398;28;20034;-71
2021/04/08 10:29:02;;;;;;;7.93;4.90;;;9.50;55.10;8.60;102280.00;;;;4995434;28;20052;-71
2021/04/08 10:31:38;;;;;;;8.70;5.18;;;9.50;56.10;8.60;102271.00;;;;4991015;28;20049;-70
2021/04/08 10:34:14;;;;;;;9.00;5.63;;;9.50;54.60;8.60;102274.00;;;;4996835;28;20512;-70
2021/04/08 10:36:57;;;;;;;5.68;4.30;;;9.50;55.60;8.60;102272.00;;;;4992105;28;20457;-70
2021/04/08 10:39:30;;;;;;;6.45;4.45;;;9.50;54.90;8.50;102268.00;;;;4989013;28;20119;-71
2021/04/08 10:42:11;;;;;;;6.05;4.18;;;9.40;54.70;8.50;102271.00;;;;4988530;28;20133;-72
2021/04/08 10:44:49;;;;;;;7.32;4.40;;;9.40;49.60;8.50;102272.00;;;;4993937;28;20046;-71
2021/04/08 10:47:23;;;;;;;5.18;4.40;;;9.40;55.10;8.50;102267.00;;;;4992812;28;20141;-71
2021/04/08 10:50:01;;;;;;;8.43;4.75;;;9.40;55.30;8.60;102260.00;;;;4987790;28;20145;-70
2021/04/08 10:52:36;;;;;;;10.20;4.85;;;9.50;55.80;8.70;102257.00;;;;4987396;28;20046;-71
2021/04/08 10:55:14;;;;;;;9.23;5.15;;;9.60;55.70;8.90;102263.00;;;;5003069;28;20111;-71
2021/04/08 10:57:43;;;;;;;8.15;4.88;;;9.70;56.90;9.00;102260.00;;;;4973788;28;20042;-71
2021/04/08 11:00:12;;;;;;;11.38;5.18;;;9.80;55.30;9.10;102269.00;;;;4990950;28;20050;-71
2021/04/08 11:02:44;;;;;;;9.95;5.07;;;9.90;55.40;9.10;102262.00;;;;4994248;28;20054;-71
2021/04/08 11:05:24;;;;;;;9.07;5.35;;;9.90;54.00;9.10;102263.00;;;;4975054;28;20054;-71
2021/04/08 11:07:55;;;;;;;7.32;5.13;;;10.00;54.60;9.20;102272.00;;;;4993268;28;20080;-71
2021/04/08 11:10:30;;;;;;;9.25;5.22;;;10.00;53.00;9.10;102260.00;;;;4990013;28;20409;-71
2021/04/08 11:12:58;;;;;;;9.85;5.45;;;10.00;54.60;9.10;102270.00;;;;4990748;28;20056;-71